Airfield :
LOGIN :

Register | Disclaimer

   EN    FR    IT 

 










Legend :    VFR   Marginal VFR   IFR   Intensive IFR   Very Intensive IFR
Visi :
Ceiling :
>= 8 km
>= 3000ft
5 to 8 km
1000 to 3000 ft
1500m to 5 km
500 to 1000 ft
800 to 1500m
200 to 500 ft
< 800m
< 200 ft
Symbols :   Thunderstorms  Fog  Heavy snow  Heavy precipitations  Wind > 20 kt
SIGMETs :     Misc.  Thunderstorms  Icing  Turbulence  Mountain Waves  Volcanic Ashes






- Airport Elevation : 364 ft


LFAQ - Albert Bray

CURRENT METAR :
  • 070800Z AUTO /////KT 9999 BKN023 BKN029 BKN044 ///// Q1025

EXPIRED METARs :
  • 070730Z AUTO 34012KT 9999 BKN019 BKN042 BKN049 18/14 Q1025 TEMPO 4000 RA
  • 070700Z AUTO 33008KT 9999 OVC040 17/14 Q1025 TEMPO 4000 RA
  • 070630Z AUTO 32008KT 9999 OVC037 17/14 Q1024 TEMPO 4000 RA
  • 070600Z AUTO 30007KT 9999 BKN039 OVC056 16/14 Q1024 TEMPO 4000 RA
  • 070530Z AUTO 29006KT 9999 FEW039 BKN058 16/14 Q1024 TEMPO 4000 RA
  • 070500Z AUTO 29006KT 9999 SCT045 BKN058 15/14 Q1024

TAF TAF LFAQ
Valid from the 07 at 06:00 until the 07 at 15:00 UTC


070500Z 0706/0715 30011KT 9999 OVC040
TEMPO 0706/0709 4000 RA
BECMG 0709/0711 02012KT



MET'MAP, your aeronautical weather chart ! - Copyright ORBIFLY December 2007 - Disclaimer

ORBIFLY MET'MAP TEAM :

Programming & Development : Alexandra Zaïnal
Original concept : Baudouin d'Aumeries
Technical & hardware support : Manuel Goepfert
Assistance : Marc-Olivier Méhu




SOURCES & CREDITS :

   NOAA